Canby, Iowa
Current Conditions -  °F | °C
As of 10:15 AM on Saturday 25 Oct 2014 (Local Time) from KPRO Reporting Station
Clear Clear  
Wind Chill: 60°   Ceiling: Unl
Heat Index: 60°   Visibility: 10mi
Dew Point: 43°   Wind: 8mph
Humidity: 54%   Direction: 10°N
Pressure: 30.11"   Gusts: NA
Location:  41.4892°N, 94.4297°W
Report Text: KPRO 251515Z AUTO 01007KT 10SM CLR 16/06 A3011 RMK AO2 T01550063
Loading
Personal Weather Stations






























Interactive Weather Map
Tropical Storm Tracking
New forecast layout! Learn more

10-Day Weather Forecast

Advertisements
Track Severe Weather on mobile